Time;durP1;ratioP1;P1;durP2;ratioP2;P2;SDS_P1;SDS_P2;PMS_P1;PMS_P2;Temp;Humidity;BMP_temperature;BMP_pressure;BME280_temperature;BME280_humidity;BME280_pressure;Samples;Min_cycle;Max_cycle;Signal;HPM_P1;HPM_P2
2021/05/01 00:02:19;;;;;;;60.30;33.47;;;;;;;;;;5029025;28;20076;-87
2021/05/01 00:04:44;;;;;;;62.25;35.03;;;;;;;;;;5011450;28;20108;-87
2021/05/01 00:07:10;;;;;;;58.58;33.75;;;;;;;;;;4999511;28;20021;-87
2021/05/01 00:09:35;;;;;;;58.03;34.08;;;;;;;;;;5011363;28;20017;-87
2021/05/01 00:12:00;;;;;;;55.27;35.07;;;;;;;;;;5018503;28;20108;-86
2021/05/01 00:14:26;;;;;;;59.00;34.78;;;;;;;;;;5010827;28;20313;-86
2021/05/01 00:16:52;;;;;;;58.75;32.88;;;;;;;;;;5010492;28;20065;-87
2021/05/01 00:19:17;;;;;;;62.35;33.30;;;;;;;;;;5010970;28;20085;-87
2021/05/01 00:21:43;;;;;;;60.55;33.80;;;;;;;;;;5011380;28;20093;-87
2021/05/01 00:24:08;;;;;;;58.97;34.77;;;;;;;;;;5029178;28;20463;-87
2021/05/01 00:26:33;;;;;;;60.35;33.17;;;;;;;;;;5011633;28;20336;-86
2021/05/01 00:28:58;;;;;;;58.13;33.50;;;;;;;;;;5010784;28;20025;-87
2021/05/01 00:31:24;;;;;;;56.92;33.50;;;;;;;;;;5011475;28;20049;-87
2021/05/01 00:33:49;;;;;;;64.22;36.40;;;;;;;;;;5010423;28;20226;-87
2021/05/01 00:36:14;;;;;;;66.53;35.70;;;;;;;;;;5013026;28;20104;-86
2021/05/01 00:38:40;;;;;;;61.78;34.47;;;;;;;;;;5009795;28;20150;-86
2021/05/01 00:41:05;;;;;;;63.50;36.25;;;;;;;;;;5009760;28;20087;-87
2021/05/01 00:43:30;;;;;;;61.95;35.58;;;;;;;;;;5027335;28;20029;-87
2021/05/01 00:46:03;;;;;;;65.22;35.58;;;;;;;;;;5027585;28;20373;-87
2021/05/01 00:48:28;;;;;;;77.38;39.97;;;;;;;;;;5028165;28;20056;-87
2021/05/01 00:50:54;;;;;;;69.05;38.58;;;;;;;;;;5011501;28;20056;-87
2021/05/01 00:53:19;;;;;;;73.63;40.30;;;;;;;;;;5011287;28;20030;-87
2021/05/01 00:55:44;;;;;;;67.53;37.95;;;;;;;;;;5012872;28;20121;-86
2021/05/01 00:58:10;;;;;;;71.53;39.08;;;;;;;;;;5032744;28;20019;-87
2021/05/01 01:00:49;;;;;;;68.63;37.13;;;;;;;;;;5015256;28;20036;-86
2021/05/01 01:03:14;;;;;;;69.78;38.17;;;;;;;;;;5031371;28;20021;-86
2021/05/01 01:05:39;;;;;;;66.55;39.83;;;;;;;;;;5015349;28;20524;-87
2021/05/01 01:08:04;;;;;;;70.70;40.28;;;;;;;;;;5014757;28;20059;-87
2021/05/01 01:10:30;;;;;;;74.93;40.45;;;;;;;;;;5015322;28;20021;-87
2021/05/01 01:12:55;;;;;;;64.78;39.38;;;;;;;;;;5029620;28;20032;-85
2021/05/01 01:15:27;;;;;;;68.03;38.60;;;;;;;;;;5033154;28;20021;-87
2021/05/01 01:17:53;;;;;;;63.88;34.85;;;;;;;;;;5014976;28;20045;-87
2021/05/01 01:20:19;;;;;;;63.47;34.20;;;;;;;;;;5015450;28;20052;-86
2021/05/01 01:22:44;;;;;;;71.75;37.55;;;;;;;;;;5014928;28;20028;-87
2021/05/01 01:25:09;;;;;;;62.22;34.97;;;;;;;;;;5014946;28;20053;-86
2021/05/01 01:27:35;;;;;;;65.30;35.55;;;;;;;;;;5032032;28;20024;-86
2021/05/01 01:30:02;;;;;;;72.20;38.38;;;;;;;;;;5013570;28;20337;-86
2021/05/01 01:32:28;;;;;;;69.80;41.20;;;;;;;;;;5031199;28;20055;-86
2021/05/01 01:34:53;;;;;;;79.15;43.00;;;;;;;;;;5007628;28;20022;-87
2021/05/01 01:37:18;;;;;;;71.28;41.65;;;;;;;;;;5010267;28;20104;-87
2021/05/01 01:39:44;;;;;;;74.63;42.72;;;;;;;;;;5014598;28;20017;-87
2021/05/01 01:42:09;;;;;;;88.25;46.25;;;;;;;;;;5014088;28;20017;-86
2021/05/01 01:44:34;;;;;;;80.45;45.08;;;;;;;;;;5013012;28;20068;-86
2021/05/01 01:46:59;;;;;;;78.28;45.00;;;;;;;;;;5013726;28;20021;-86
2021/05/01 01:49:24;;;;;;;85.97;46.30;;;;;;;;;;5014217;28;20489;-87
2021/05/01 01:51:50;;;;;;;84.32;47.67;;;;;;;;;;5013596;28;20343;-86
2021/05/01 01:54:15;;;;;;;86.90;46.38;;;;;;;;;;5015021;28;20024;-87
2021/05/01 01:56:40;;;;;;;85.30;46.03;;;;;;;;;;5015460;28;20025;-86
2021/05/01 01:59:06;;;;;;;89.65;47.88;;;;;;;;;;5014241;28;20024;-86
2021/05/01 02:01:31;;;;;;;95.97;48.80;;;;;;;;;;5013603;28;20485;-86
2021/05/01 02:03:57;;;;;;;87.82;49.40;;;;;;;;;;5031594;28;20310;-87
2021/05/01 02:06:22;;;;;;;92.35;49.05;;;;;;;;;;5013543;28;20025;-86
2021/05/01 02:08:47;;;;;;;91.13;49.38;;;;;;;;;;5013495;28;20018;-86
2021/05/01 02:11:12;;;;;;;101.32;49.78;;;;;;;;;;5012661;28;20072;-87
2021/05/01 02:13:37;;;;;;;94.28;50.75;;;;;;;;;;5032177;28;20049;-87
2021/05/01 02:16:03;;;;;;;81.15;46.33;;;;;;;;;;5014972;28;20029;-87
2021/05/01 02:18:30;;;;;;;95.15;51.00;;;;;;;;;;5013262;28;20018;-87
2021/05/01 02:20:55;;;;;;;96.78;51.25;;;;;;;;;;5010278;28;20025;-86
2021/05/01 02:23:20;;;;;;;98.53;49.35;;;;;;;;;;5006413;28;20025;-87
2021/05/01 02:25:46;;;;;;;90.38;50.75;;;;;;;;;;5019048;28;20397;-86
2021/05/01 02:28:11;;;;;;;96.60;51.13;;;;;;;;;;5026415;28;20459;-87
2021/05/01 02:30:36;;;;;;;100.57;50.38;;;;;;;;;;5013664;28;20032;-87
2021/05/01 02:33:01;;;;;;;95.97;52.75;;;;;;;;;;5012022;28;20025;-87
2021/05/01 02:35:28;;;;;;;104.68;54.03;;;;;;;;;;5012914;28;20029;-86
2021/05/01 02:37:54;;;;;;;98.70;58.67;;;;;;;;;;5007092;28;20024;-87
2021/05/01 02:40:19;;;;;;;100.72;51.58;;;;;;;;;;5005661;28;20021;-86
2021/05/01 02:42:45;;;;;;;94.35;51.67;;;;;;;;;;5021901;28;20456;-85
2021/05/01 02:45:13;;;;;;;100.78;52.10;;;;;;;;;;5013383;28;20051;-87
2021/05/01 02:47:38;;;;;;;100.55;51.80;;;;;;;;;;5031631;28;20021;-86
2021/05/01 02:50:04;;;;;;;97.03;50.97;;;;;;;;;;5013459;28;20393;-86
2021/05/01 02:52:30;;;;;;;104.20;52.22;;;;;;;;;;5032360;28;20104;-87
2021/05/01 02:54:55;;;;;;;99.05;50.95;;;;;;;;;;5028725;28;20053;-86
2021/05/01 02:57:20;;;;;;;98.65;52.95;;;;;;;;;;5015680;28;20045;-87
2021/05/01 02:59:45;;;;;;;94.75;51.80;;;;;;;;;;5031886;28;20029;-87
2021/05/01 03:02:10;;;;;;;99.10;52.08;;;;;;;;;;5032487;28;20060;-87
2021/05/01 03:04:36;;;;;;;98.28;51.95;;;;;;;;;;5035407;28;20017;-87
2021/05/01 03:07:01;;;;;;;101.70;53.80;;;;;;;;;;5019221;28;20358;-87
2021/05/01 03:09:26;;;;;;;104.95;52.70;;;;;;;;;;5020274;28;20052;-87
2021/05/01 03:11:52;;;;;;;100.85;56.35;;;;;;;;;;5019483;28;20029;-87
2021/05/01 03:14:17;;;;;;;104.22;53.80;;;;;;;;;;5019794;28;20022;-86
2021/05/01 03:16:42;;;;;;;105.47;54.20;;;;;;;;;;5036378;28;20022;-86
2021/05/01 03:19:07;;;;;;;104.22;54.97;;;;;;;;;;5029773;28;20371;-87
2021/05/01 03:21:33;;;;;;;101.53;52.22;;;;;;;;;;5031302;28;20028;-87
2021/05/01 03:23:58;;;;;;;97.50;51.63;;;;;;;;;;5013397;28;20009;-87
2021/05/01 03:26:23;;;;;;;111.15;55.55;;;;;;;;;;5014046;28;20047;-87
2021/05/01 03:28:49;;;;;;;100.15;53.45;;;;;;;;;;5010624;28;20013;-87
2021/05/01 03:31:14;;;;;;;96.05;51.78;;;;;;;;;;5031915;28;20028;-87
2021/05/01 03:33:39;;;;;;;102.00;55.10;;;;;;;;;;5015478;28;20032;-87
2021/05/01 03:36:05;;;;;;;98.53;51.53;;;;;;;;;;5012517;28;20110;-87
2021/05/01 03:38:31;;;;;;;102.00;53.28;;;;;;;;;;5000721;28;20053;-87
2021/05/01 03:40:56;;;;;;;112.30;57.17;;;;;;;;;;5016135;28;20071;-87
2021/05/01 03:43:22;;;;;;;110.60;54.25;;;;;;;;;;5014893;28;20048;-88
2021/05/01 03:45:47;;;;;;;124.65;57.50;;;;;;;;;;5006205;28;20022;-87
2021/05/01 03:48:12;;;;;;;110.75;56.58;;;;;;;;;;5012608;28;20025;-87
2021/05/01 03:50:37;;;;;;;108.10;56.53;;;;;;;;;;5012055;28;20103;-87
2021/05/01 03:53:03;;;;;;;114.53;58.67;;;;;;;;;;5011437;28;20029;-87
2021/05/01 03:55:28;;;;;;;120.30;59.17;;;;;;;;;;5011621;28;20045;-87
2021/05/01 03:57:53;;;;;;;117.03;57.42;;;;;;;;;;5011254;28;20021;-86
2021/05/01 04:00:19;;;;;;;120.13;56.97;;;;;;;;;;5026623;28;20024;-87
2021/05/01 04:02:44;;;;;;;112.57;56.38;;;;;;;;;;5011771;28;20040;-87
2021/05/01 04:05:10;;;;;;;111.15;58.53;;;;;;;;;;5011649;28;20104;-87
2021/05/01 04:07:35;;;;;;;114.45;57.83;;;;;;;;;;5029092;28;20106;-87
2021/05/01 04:10:01;;;;;;;114.75;58.53;;;;;;;;;;5010878;28;20477;-88
2021/05/01 04:12:26;;;;;;;112.47;58.38;;;;;;;;;;5029131;28;20385;-88
2021/05/01 04:14:52;;;;;;;116.95;60.03;;;;;;;;;;5029454;28;20044;-88
2021/05/01 04:17:17;;;;;;;116.68;60.53;;;;;;;;;;5011047;28;20029;-87
2021/05/01 04:19:42;;;;;;;117.55;62.42;;;;;;;;;;5028836;28;20021;-87
2021/05/01 04:22:07;;;;;;;119.88;60.40;;;;;;;;;;5029166;28;20029;-88
2021/05/01 04:24:33;;;;;;;120.43;60.63;;;;;;;;;;5011948;28;20350;-87
2021/05/01 04:26:58;;;;;;;126.93;68.78;;;;;;;;;;5013117;28;20280;-87
2021/05/01 04:29:24;;;;;;;128.73;64.78;;;;;;;;;;5010796;28;20399;-87
2021/05/01 04:31:49;;;;;;;129.07;68.10;;;;;;;;;;5001920;28;20037;-87
2021/05/01 04:34:14;;;;;;;126.35;69.43;;;;;;;;;;5010477;28;20393;-87
2021/05/01 04:36:39;;;;;;;129.73;64.47;;;;;;;;;;5011197;28;20028;-88
2021/05/01 04:39:07;;;;;;;126.05;63.05;;;;;;;;;;5009699;28;20116;-87
2021/05/01 04:41:32;;;;;;;132.18;65.90;;;;;;;;;;5010300;28;20025;-87
2021/05/01 04:43:57;;;;;;;130.32;64.60;;;;;;;;;;5006742;28;20021;-87
2021/05/01 04:46:22;;;;;;;137.45;65.78;;;;;;;;;;5028848;28;20029;-88
2021/05/01 04:48:48;;;;;;;137.73;65.93;;;;;;;;;;5010586;28;20389;-87
2021/05/01 04:51:13;;;;;;;133.88;66.28;;;;;;;;;;5010798;28;20029;-87
2021/05/01 04:53:38;;;;;;;134.40;69.25;;;;;;;;;;5027577;28;20029;-87
2021/05/01 04:56:03;;;;;;;158.85;79.18;;;;;;;;;;5027404;28;20025;-87
2021/05/01 04:58:29;;;;;;;141.05;68.68;;;;;;;;;;5012605;28;20093;-87
2021/05/01 05:00:54;;;;;;;125.47;62.72;;;;;;;;;;5006954;28;20366;-87
2021/05/01 05:03:19;;;;;;;138.27;66.35;;;;;;;;;;5009620;28;20025;-87
2021/05/01 05:05:44;;;;;;;143.73;69.45;;;;;;;;;;5028761;28;20489;-87
2021/05/01 05:08:10;;;;;;;123.75;62.63;;;;;;;;;;5028114;28;20381;-87
2021/05/01 05:10:35;;;;;;;133.43;63.05;;;;;;;;;;5027760;28;20425;-87
2021/05/01 05:13:01;;;;;;;129.13;62.92;;;;;;;;;;5010108;28;20448;-88
2021/05/01 05:15:26;;;;;;;123.40;67.35;;;;;;;;;;5010742;28;20105;-86
2021/05/01 05:17:51;;;;;;;130.18;70.65;;;;;;;;;;5009032;28;20566;-87
2021/05/01 05:20:16;;;;;;;136.27;73.05;;;;;;;;;;5028425;28;20466;-88
2021/05/01 05:22:43;;;;;;;140.48;66.20;;;;;;;;;;5027769;28;20032;-88
2021/05/01 05:25:08;;;;;;;128.95;59.50;;;;;;;;;;5027592;28;20017;-86
2021/05/01 05:27:34;;;;;;;130.35;61.20;;;;;;;;;;5028381;28;20109;-87
2021/05/01 05:29:59;;;;;;;123.22;59.78;;;;;;;;;;5009264;28;20032;-86
2021/05/01 05:32:24;;;;;;;123.00;62.13;;;;;;;;;;5007761;28;20030;-87
2021/05/01 05:34:50;;;;;;;120.15;59.00;;;;;;;;;;5021270;28;20029;-87
2021/05/01 05:37:16;;;;;;;119.70;61.20;;;;;;;;;;5023369;28;20103;-86
2021/05/01 05:39:42;;;;;;;115.85;60.72;;;;;;;;;;5027428;28;20457;-86
2021/05/01 05:42:08;;;;;;;123.45;63.45;;;;;;;;;;5009340;28;20521;-87
2021/05/01 05:44:34;;;;;;;116.82;57.75;;;;;;;;;;5030712;28;20025;-87
2021/05/01 05:46:59;;;;;;;114.68;57.60;;;;;;;;;;5011423;28;20390;-87
2021/05/01 05:49:24;;;;;;;111.90;58.08;;;;;;;;;;5009297;28;20108;-87
2021/05/01 05:51:50;;;;;;;106.45;55.53;;;;;;;;;;5027099;28;20079;-86
2021/05/01 05:54:15;;;;;;;112.25;55.22;;;;;;;;;;5011183;28;20763;-86
2021/05/01 05:56:41;;;;;;;92.82;47.92;;;;;;;;;;5011234;28;20026;-85
2021/05/01 05:59:06;;;;;;;99.47;49.63;;;;;;;;;;5006268;28;20495;-87
2021/05/01 06:01:32;;;;;;;91.45;49.03;;;;;;;;;;5022838;28;20032;-86
2021/05/01 06:03:58;;;;;;;87.95;45.67;;;;;;;;;;5007643;28;20064;-86
2021/05/01 06:06:24;;;;;;;86.82;47.80;;;;;;;;;;5026329;28;20075;-87
2021/05/01 06:08:50;;;;;;;90.13;47.30;;;;;;;;;;5010263;28;20036;-87
2021/05/01 06:11:17;;;;;;;84.65;46.63;;;;;;;;;;5028064;28;20033;-87
2021/05/01 06:13:43;;;;;;;94.32;50.22;;;;;;;;;;5022338;28;20029;-87
2021/05/01 06:16:08;;;;;;;92.13;48.38;;;;;;;;;;5010678;28;20104;-87
2021/05/01 06:18:35;;;;;;;94.05;47.58;;;;;;;;;;5027778;28;20036;-86
2021/05/01 06:21:00;;;;;;;92.38;48.50;;;;;;;;;;5010877;28;20029;-86
2021/05/01 06:23:26;;;;;;;94.00;50.58;;;;;;;;;;5026948;28;20037;-87
2021/05/01 06:25:51;;;;;;;86.85;45.40;;;;;;;;;;5010457;28;20024;-86
2021/05/01 06:28:17;;;;;;;86.63;45.45;;;;;;;;;;5006304;28;20477;-87
2021/05/01 06:30:43;;;;;;;77.60;43.92;;;;;;;;;;5026087;28;20509;-85
2021/05/01 06:33:10;;;;;;;80.57;42.80;;;;;;;;;;5009453;28;20025;-87
2021/05/01 06:35:36;;;;;;;83.00;41.53;;;;;;;;;;5024926;28;20369;-86
2021/05/01 06:38:02;;;;;;;83.00;43.17;;;;;;;;;;5009850;28;20108;-87
2021/05/01 06:40:32;;;;;;;77.57;40.58;;;;;;;;;;5023181;28;20460;-86
2021/05/01 06:43:00;;;;;;;;;;;;;;;;;;5008307;28;20534;-86
2021/05/01 06:45:26;;;;;;;59.88;34.13;;;;;;;;;;5008898;28;20386;-86
2021/05/01 06:48:03;;;;;;;57.30;32.70;;;;;;;;;;5006840;28;20025;-86
2021/05/01 06:50:28;;;;;;;60.20;32.60;;;;;;;;;;5008051;28;20078;-86
2021/05/01 06:52:54;;;;;;;59.53;32.28;;;;;;;;;;5007520;28;20017;-86
2021/05/01 06:55:20;;;;;;;66.10;35.03;;;;;;;;;;5026521;28;20044;-86
2021/05/01 06:57:50;;;;;;;65.90;35.72;;;;;;;;;;5025336;28;20029;-86
2021/05/01 07:00:16;;;;;;;73.22;34.33;;;;;;;;;;5008664;28;20037;-87
2021/05/01 07:02:46;;;;;;;60.47;33.40;;;;;;;;;;5007936;28;20028;-86
2021/05/01 07:05:19;;;;;;;53.65;28.70;;;;;;;;;;5025928;28;20025;-87
2021/05/01 07:07:44;;;;;;;54.03;28.98;;;;;;;;;;5026765;28;20107;-87
2021/05/01 07:10:10;;;;;;;42.33;24.05;;;;;;;;;;5009529;28;20083;-86
2021/05/01 07:12:37;;;;;;;37.50;22.27;;;;;;;;;;5006873;28;20026;-86
2021/05/01 07:15:09;;;;;;;49.33;26.52;;;;;;;;;;5024587;28;20028;-87
2021/05/01 07:17:35;;;;;;;46.35;25.98;;;;;;;;;;5021622;28;20029;-87
2021/05/01 07:20:00;;;;;;;52.05;25.95;;;;;;;;;;5007511;28;20021;-88
2021/05/01 07:22:25;;;;;;;43.25;25.02;;;;;;;;;;5026053;28;20397;-87
2021/05/01 07:24:50;;;;;;;38.30;23.55;;;;;;;;;;5008154;28;20022;-86
2021/05/01 07:27:16;;;;;;;38.42;23.15;;;;;;;;;;5005763;28;20514;-87
2021/05/01 07:29:41;;;;;;;29.88;18.40;;;;;;;;;;5007912;28;20018;-86
2021/05/01 07:32:09;;;;;;;33.25;21.02;;;;;;;;;;5007686;28;20017;-85
2021/05/01 07:34:34;;;;;;;29.65;20.25;;;;;;;;;;5008001;28;20017;-86
2021/05/01 07:37:04;;;;;;;34.70;19.40;;;;;;;;;;5029988;28;20500;-87
2021/05/01 07:39:30;;;;;;;37.53;21.05;;;;;;;;;;5009443;28;20022;-87
2021/05/01 07:41:58;;;;;;;36.63;20.98;;;;;;;;;;5001051;28;20093;-86
2021/05/01 07:44:27;;;;;;;33.22;21.25;;;;;;;;;;5011670;28;20025;-86
2021/05/01 07:46:52;;;;;;;38.97;23.25;;;;;;;;;;5012233;28;20128;-86
2021/05/01 07:49:18;;;;;;;40.92;24.40;;;;;;;;;;5029134;28;20045;-86
2021/05/01 07:51:43;;;;;;;37.88;23.10;;;;;;;;;;5010624;28;20685;-86
2021/05/01 07:54:09;;;;;;;36.22;23.45;;;;;;;;;;5010071;28;20024;-86
2021/05/01 07:56:34;;;;;;;37.85;24.20;;;;;;;;;;5027656;28;20116;-85
2021/05/01 07:59:01;;;;;;;32.97;21.55;;;;;;;;;;5011106;28;20068;-86
2021/05/01 08:01:26;;;;;;;32.53;21.73;;;;;;;;;;5021789;28;20088;-86
2021/05/01 08:03:53;;;;;;;35.83;20.77;;;;;;;;;;5000630;28;20473;-86
2021/05/01 08:06:18;;;;;;;24.92;15.65;;;;;;;;;;5027117;28;20381;-86
2021/05/01 08:08:44;;;;;;;35.37;17.53;;;;;;;;;;5030427;28;20024;-87
2021/05/01 08:11:09;;;;;;;28.52;19.10;;;;;;;;;;5021241;28;20351;-86
2021/05/01 08:13:34;;;;;;;25.83;18.42;;;;;;;;;;5026584;28;20025;-85
2021/05/01 08:15:59;;;;;;;28.77;18.23;;;;;;;;;;5010881;28;20662;-87
2021/05/01 08:18:25;;;;;;;27.23;17.10;;;;;;;;;;5027295;28;20272;-87
2021/05/01 08:20:50;;;;;;;27.67;15.55;;;;;;;;;;5011214;28;20276;-87
2021/05/01 08:23:15;;;;;;;29.95;16.90;;;;;;;;;;5027384;28;20502;-86
2021/05/01 08:25:40;;;;;;;24.27;16.55;;;;;;;;;;5002564;28;20021;-86
2021/05/01 08:28:06;;;;;;;26.17;16.67;;;;;;;;;;5028495;28;20017;-86
2021/05/01 08:30:31;;;;;;;26.33;16.80;;;;;;;;;;5028588;28;20104;-85
2021/05/01 08:32:56;;;;;;;30.23;17.17;;;;;;;;;;5028278;28;20021;-86
2021/05/01 08:35:21;;;;;;;29.97;17.97;;;;;;;;;;5011157;28;20702;-85
2021/05/01 08:37:47;;;;;;;29.23;18.85;;;;;;;;;;5008468;28;20299;-87
2021/05/01 08:40:13;;;;;;;32.28;20.70;;;;;;;;;;5022967;28;20034;-86
2021/05/01 08:42:46;;;;;;;25.13;14.88;;;;;;;;;;5010319;28;20540;-86
2021/05/01 08:45:12;;;;;;;24.90;14.73;;;;;;;;;;5010830;28;20104;-86
2021/05/01 08:47:44;;;;;;;31.92;14.60;;;;;;;;;;5011024;28;20592;-86
2021/05/01 08:50:32;;;;;;;24.80;14.45;;;;;;;;;;5008769;28;20060;-87
2021/05/01 08:52:58;;;;;;;24.52;16.73;;;;;;;;;;5010226;28;20551;-85
2021/05/01 08:55:24;;;;;;;26.65;15.45;;;;;;;;;;5008403;28;20530;-86
2021/05/01 08:57:50;;;;;;;23.52;14.50;;;;;;;;;;5008955;28;20037;-86
2021/05/01 09:00:16;;;;;;;27.83;16.05;;;;;;;;;;5028719;28;20026;-86
2021/05/01 09:02:41;;;;;;;25.27;15.05;;;;;;;;;;5009644;28;20029;-87
2021/05/01 09:05:07;;;;;;;30.02;16.90;;;;;;;;;;5010662;28;20405;-85
2021/05/01 09:07:33;;;;;;;25.55;15.73;;;;;;;;;;5010380;28;20025;-86
2021/05/01 09:09:59;;;;;;;32.70;16.33;;;;;;;;;;5028425;28;20033;-86
2021/05/01 09:12:34;;;;;;;26.38;15.23;;;;;;;;;;5006534;28;20026;-85
2021/05/01 09:15:00;;;;;;;28.98;16.08;;;;;;;;;;5010453;28;20141;-86
2021/05/01 09:17:25;;;;;;;24.30;14.35;;;;;;;;;;5013729;28;20021;-86
2021/05/01 09:20:00;;;;;;;30.67;13.65;;;;;;;;;;5014337;28;20028;-87
2021/05/01 09:22:25;;;;;;;23.50;12.18;;;;;;;;;;5015366;28;20029;-85
2021/05/01 09:25:03;;;;;;;23.42;12.82;;;;;;;;;;5017378;28;20029;-86
2021/05/01 09:27:29;;;;;;;27.10;16.70;;;;;;;;;;5017677;28;20029;-86
2021/05/01 09:29:54;;;;;;;25.55;14.82;;;;;;;;;;5036442;28;20024;-86
2021/05/01 09:32:20;;;;;;;26.67;15.50;;;;;;;;;;5016259;28;20083;-85
2021/05/01 09:34:50;;;;;;;23.33;14.98;;;;;;;;;;5015139;28;20029;-86
2021/05/01 09:37:17;;;;;;;23.17;13.17;;;;;;;;;;5034933;28;20021;-86
2021/05/01 09:39:49;;;;;;;21.58;11.63;;;;;;;;;;5017013;28;20029;-86
2021/05/01 09:42:16;;;;;;;20.05;12.30;;;;;;;;;;5030331;28;20502;-85
2021/05/01 09:44:41;;;;;;;23.75;14.73;;;;;;;;;;5012266;28;20068;-86
2021/05/01 09:47:11;;;;;;;23.48;15.70;;;;;;;;;;5007014;28;20057;-87
2021/05/01 09:49:37;;;;;;;25.40;14.68;;;;;;;;;;5010603;28;20041;-86
2021/05/01 09:52:06;;;;;;;25.90;14.52;;;;;;;;;;5031634;28;20025;-86
2021/05/01 09:54:32;;;;;;;30.55;16.35;;;;;;;;;;5030441;28;20378;-87
2021/05/01 09:57:01;;;;;;;28.65;14.93;;;;;;;;;;5013415;28;20033;-87
2021/05/01 09:59:36;;;;;;;23.30;14.45;;;;;;;;;;5010321;28;20025;-87
2021/05/01 10:02:01;;;;;;;24.92;15.15;;;;;;;;;;5006080;28;20091;-88
2021/05/01 10:04:27;;;;;;;27.95;16.25;;;;;;;;;;5005463;28;20025;-87
2021/05/01 10:06:54;;;;;;;34.22;17.67;;;;;;;;;;5012053;28;20051;-86
2021/05/01 10:09:20;;;;;;;23.98;15.38;;;;;;;;;;5015236;28;20018;-86
2021/05/01 10:11:45;;;;;;;23.13;14.10;;;;;;;;;;5017382;28;20098;-86
2021/05/01 10:14:11;;;;;;;23.88;14.23;;;;;;;;;;5015952;28;20442;-86
2021/05/01 10:16:37;;;;;;;25.02;14.60;;;;;;;;;;5009863;28;20029;-85
2021/05/01 10:19:02;;;;;;;20.85;12.82;;;;;;;;;;5012028;28;20029;-86
2021/05/01 10:21:27;;;;;;;24.40;15.70;;;;;;;;;;5026718;28;20397;-85
2021/05/01 10:23:55;;;;;;;25.00;14.20;;;;;;;;;;5015471;28;20032;-85
2021/05/01 10:26:20;;;;;;;20.63;13.23;;;;;;;;;;5029446;28;20405;-86
2021/05/01 10:28:47;;;;;;;20.48;12.40;;;;;;;;;;5008074;28;20018;-85
2021/05/01 10:31:12;;;;;;;30.98;15.55;;;;;;;;;;5010115;28;20055;-85
2021/05/01 10:33:43;;;;;;;24.15;13.95;;;;;;;;;;5011645;28;20499;-85
2021/05/01 10:36:09;;;;;;;24.55;14.82;;;;;;;;;;5025083;28;20025;-86
2021/05/01 10:38:34;;;;;;;22.15;15.13;;;;;;;;;;5013542;28;20032;-86
2021/05/01 10:41:00;;;;;;;20.08;13.07;;;;;;;;;;5014430;28;20057;-86
2021/05/01 10:43:27;;;;;;;23.63;14.10;;;;;;;;;;5032043;28;20025;-86
2021/05/01 10:45:54;;;;;;;22.17;14.05;;;;;;;;;;5013478;28;20017;-86
2021/05/01 10:48:20;;;;;;;23.30;16.23;;;;;;;;;;5013292;28;20524;-86
2021/05/01 10:50:58;;;;;;;23.65;13.90;;;;;;;;;;5011818;28;20470;-86
2021/05/01 10:53:23;;;;;;;21.70;14.30;;;;;;;;;;5019116;28;20025;-86
2021/05/01 10:55:50;;;;;;;23.02;13.43;;;;;;;;;;5013703;28;20023;-87
2021/05/01 10:58:28;;;;;;;21.25;12.68;;;;;;;;;;5014381;28;20063;-86
2021/05/01 11:00:53;;;;;;;25.77;14.27;;;;;;;;;;5012319;28;20052;-86
2021/05/01 11:03:18;;;;;;;24.08;14.63;;;;;;;;;;5012487;28;20497;-86
2021/05/01 11:05:45;;;;;;;20.70;13.23;;;;;;;;;;5009927;28;20044;-87
2021/05/01 11:08:13;;;;;;;22.70;15.10;;;;;;;;;;5012924;28;20055;-86
2021/05/01 11:10:39;;;;;;;20.23;15.18;;;;;;;;;;5013174;28;20021;-87
2021/05/01 11:13:05;;;;;;;26.02;15.45;;;;;;;;;;5013371;28;20467;-87
2021/05/01 11:15:38;;;;;;;23.75;14.30;;;;;;;;;;5008301;28;20970;-86
2021/05/01 11:18:05;;;;;;;24.33;14.25;;;;;;;;;;5012463;28;20090;-87
2021/05/01 11:20:31;;;;;;;22.88;13.93;;;;;;;;;;5011856;28;20393;-86
2021/05/01 11:22:56;;;;;;;24.92;12.55;;;;;;;;;;5029112;28;20025;-87
2021/05/01 11:25:22;;;;;;;20.20;12.05;;;;;;;;;;5030717;28;20309;-87
2021/05/01 11:27:51;;;;;;;24.90;13.68;;;;;;;;;;5011676;28;20486;-86
2021/05/01 11:30:27;;;;;;;23.60;12.30;;;;;;;;;;5013227;28;20014;-86
2021/05/01 11:32:53;;;;;;;25.10;13.45;;;;;;;;;;4996968;28;20026;-86
2021/05/01 11:35:25;;;;;;;21.85;11.07;;;;;;;;;;5014182;28;20029;-86
2021/05/01 11:37:55;;;;;;;18.75;10.93;;;;;;;;;;5013787;28;20025;-86
2021/05/01 11:40:22;;;;;;;23.10;12.43;;;;;;;;;;5011831;28;20014;-87
2021/05/01 11:42:47;;;;;;;22.80;12.10;;;;;;;;;;5012272;28;20032;-86
2021/05/01 11:45:31;;;;;;;20.40;12.15;;;;;;;;;;5009666;28;20025;-87
2021/05/01 11:48:03;;;;;;;21.92;11.88;;;;;;;;;;5011073;28;20240;-86
2021/05/01 11:50:29;;;;;;;16.58;10.40;;;;;;;;;;5014334;28;20021;-86
2021/05/01 11:52:54;;;;;;;19.83;10.52;;;;;;;;;;5015858;28;20036;-86
2021/05/01 11:55:32;;;;;;;15.23;10.20;;;;;;;;;;5036174;28;20033;-87
2021/05/01 11:58:02;;;;;;;15.95;9.73;;;;;;;;;;5026914;28;20264;-87
2021/05/01 12:00:34;;;;;;;13.73;10.07;;;;;;;;;;5010952;28;20025;-86
2021/05/01 12:03:00;;;;;;;22.33;9.85;;;;;;;;;;5011216;28;20049;-87
2021/05/01 12:05:28;;;;;;;17.35;9.40;;;;;;;;;;5012716;28;20021;-87
2021/05/01 12:08:11;;;;;;;15.73;9.30;;;;;;;;;;5024728;28;20014;-87
2021/05/01 12:10:38;;;;;;;20.55;9.20;;;;;;;;;;5010399;28;20190;-87
2021/05/01 12:13:24;;;;;;;16.70;9.82;;;;;;;;;;5010389;28;20036;-86
2021/05/01 12:15:54;;;;;;;15.38;8.00;;;;;;;;;;5011839;28;20094;-87
2021/05/01 12:18:20;;;;;;;13.82;8.40;;;;;;;;;;5025296;28;20026;-86
2021/05/01 12:20:51;;;;;;;20.67;9.90;;;;;;;;;;5028396;28;20112;-85
2021/05/01 12:23:36;;;;;;;15.50;8.13;;;;;;;;;;5002497;28;20021;-86
2021/05/01 12:26:03;;;;;;;15.65;8.50;;;;;;;;;;5000276;28;20045;-87
2021/05/01 12:28:39;;;;;;;14.05;7.97;;;;;;;;;;5008263;28;20128;-86
2021/05/01 12:31:05;;;;;;;12.38;6.88;;;;;;;;;;5010240;28;20116;-86
2021/05/01 12:33:31;;;;;;;15.18;7.85;;;;;;;;;;5011275;28;20049;-86
2021/05/01 12:36:02;;;;;;;16.90;8.55;;;;;;;;;;5005396;28;20112;-86
2021/05/01 12:38:29;;;;;;;16.38;7.43;;;;;;;;;;5027016;28;20017;-86
2021/05/01 12:41:10;;;;;;;12.48;6.80;;;;;;;;;;5010145;28;20473;-85
2021/05/01 12:43:42;;;;;;;10.35;6.75;;;;;;;;;;5030446;28;20026;-86
2021/05/01 12:46:15;;;;;;;11.55;6.90;;;;;;;;;;5011883;28;20366;-86
2021/05/01 12:48:47;;;;;;;11.75;6.93;;;;;;;;;;5012845;28;20021;-86
2021/05/01 12:51:20;;;;;;;14.95;6.45;;;;;;;;;;5010460;28;20097;-87
2021/05/01 12:53:45;;;;;;;13.57;7.35;;;;;;;;;;5006073;28;20025;-87
2021/05/01 12:56:18;;;;;;;14.27;7.03;;;;;;;;;;5000139;28;20350;-88
2021/05/01 12:58:43;;;;;;;14.45;7.55;;;;;;;;;;5030455;28;20030;-87
2021/05/01 13:01:20;;;;;;;12.27;7.60;;;;;;;;;;5031087;28;20026;-87
2021/05/01 13:04:10;;;;;;;11.40;7.45;;;;;;;;;;5012504;28;20112;-86
2021/05/01 13:06:36;;;;;;;10.83;8.30;;;;;;;;;;5012148;28;20029;-86
2021/05/01 13:09:01;;;;;;;14.65;8.32;;;;;;;;;;5010783;28;20275;-87
2021/05/01 13:11:30;;;;;;;10.70;6.60;;;;;;;;;;5029902;28;20022;-87
2021/05/01 13:14:14;;;;;;;13.20;6.53;;;;;;;;;;5006155;28;20029;-88
2021/05/01 13:16:57;;;;;;;11.75;6.70;;;;;;;;;;5020307;28;20029;-87
2021/05/01 13:19:23;;;;;;;10.95;5.70;;;;;;;;;;5030399;28;20033;-87
2021/05/01 13:21:58;;;;;;;10.45;6.53;;;;;;;;;;5028809;28;20032;-86
2021/05/01 13:24:32;;;;;;;12.15;6.60;;;;;;;;;;5030194;28;20029;-86
2021/05/01 13:26:58;;;;;;;11.60;5.43;;;;;;;;;;5009766;28;20045;-88
2021/05/01 13:29:34;;;;;;;9.40;5.47;;;;;;;;;;5012421;28;20018;-87
2021/05/01 13:31:59;;;;;;;9.70;6.18;;;;;;;;;;5013234;28;20052;-87
2021/05/01 13:34:25;;;;;;;8.98;5.78;;;;;;;;;;5010711;28;20055;-86
2021/05/01 13:36:51;;;;;;;10.25;5.82;;;;;;;;;;5010367;28;20108;-87
2021/05/01 13:39:17;;;;;;;11.80;5.75;;;;;;;;;;5011174;28;20021;-87
2021/05/01 13:41:42;;;;;;;12.32;6.90;;;;;;;;;;5010231;28;20025;-88
2021/05/01 13:44:07;;;;;;;10.25;5.63;;;;;;;;;;5012060;28;20049;-86
2021/05/01 13:46:43;;;;;;;10.93;5.40;;;;;;;;;;5010512;28;20045;-86
2021/05/01 13:49:08;;;;;;;9.85;5.03;;;;;;;;;;5050602;23;20041;-66
2021/05/01 13:51:33;;;;;;;9.52;5.28;;;;;;;;;;5052201;28;20492;-66
2021/05/01 13:54:12;;;;;;;10.70;6.13;;;;;;;;;;5050510;28;20029;-66
2021/05/01 13:56:43;;;;;;;8.50;5.93;;;;;;;;;;5048537;28;20473;-66
2021/05/01 13:59:09;;;;;;;9.23;5.70;;;;;;;;;;5048210;28;20541;-66
2021/05/01 14:01:44;;;;;;;9.73;5.25;;;;;;;;;;5076099;23;20040;-85
2021/05/01 14:04:35;;;;;;;10.80;6.07;;;;;;;;;;5071348;28;20914;-84
2021/05/01 14:07:02;;;;;;;9.13;5.22;;;;;;;;;;5064461;28;20033;-84
2021/05/01 14:09:28;;;;;;;10.68;4.93;;;;;;;;;;5052927;28;20021;-84
2021/05/01 14:12:01;;;;;;;9.38;4.82;;;;;;;;;;5072470;28;20107;-83
2021/05/01 14:14:33;;;;;;;12.45;5.25;;;;;;;;;;5071972;28;20166;-83
2021/05/01 14:16:58;;;;;;;9.60;4.82;;;;;;;;;;5073751;28;20496;-83